sensor_id;sensor_type;location;lat;lon;timestamp;pressure;altitude;pressure_sealevel;temperature;humidity
72395;BME280;60384;48.152;11.614;2023-11-19T00:00:17;95699.06;;;6.92;70.67
72395;BME280;60384;48.152;11.614;2023-11-19T00:03:19;95694.94;;;6.98;70.63
72395;BME280;60384;48.152;11.614;2023-11-19T00:06:21;95659.66;;;6.81;70.53
72395;BME280;60384;48.152;11.614;2023-11-19T00:09:23;95678.84;;;7.00;70.43
72395;BME280;60384;48.152;11.614;2023-11-19T00:12:27;95616.34;;;6.66;70.54
72395;BME280;60384;48.152;11.614;2023-11-19T00:15:29;95668.25;;;7.00;70.49
72395;BME280;60384;48.152;11.614;2023-11-19T00:18:31;95641.81;;;6.91;70.54
72395;BME280;60384;48.152;11.614;2023-11-19T00:21:33;95648.75;;;7.01;70.44
72395;BME280;60384;48.152;11.614;2023-11-19T00:24:35;95640.63;;;7.02;70.61
72395;BME280;60384;48.152;11.614;2023-11-19T00:27:38;95643.28;;;7.02;70.63
72395;BME280;60384;48.152;11.614;2023-11-19T00:30:40;95638.50;;;7.06;70.48
72395;BME280;60384;48.152;11.614;2023-11-19T00:33:42;95634.53;;;7.10;70.34
72395;BME280;60384;48.152;11.614;2023-11-19T00:36:44;95629.72;;;7.13;70.39
72395;BME280;60384;48.152;11.614;2023-11-19T00:39:46;95622.91;;;7.19;70.34
72395;BME280;60384;48.152;11.614;2023-11-19T00:42:49;95629.38;;;7.24;70.29
72395;BME280;60384;48.152;11.614;2023-11-19T00:45:51;95625.22;;;7.30;70.44
72395;BME280;60384;48.152;11.614;2023-11-19T00:48:53;95594.78;;;7.18;70.32
72395;BME280;60384;48.152;11.614;2023-11-19T00:51:55;95607.34;;;7.32;70.31
72395;BME280;60384;48.152;11.614;2023-11-19T00:54:57;95605.97;;;7.44;70.29
72395;BME280;60384;48.152;11.614;2023-11-19T00:58:00;95592.59;;;7.38;70.41
72395;BME280;60384;48.152;11.614;2023-11-19T01:01:04;95609.63;;;7.51;70.13
72395;BME280;60384;48.152;11.614;2023-11-19T01:04:05;95601.44;;;7.61;70.11
72395;BME280;60384;48.152;11.614;2023-11-19T01:07:07;95596.97;;;7.61;69.96
72395;BME280;60384;48.152;11.614;2023-11-19T01:10:13;95598.47;;;7.64;70.08
72395;BME280;60384;48.152;11.614;2023-11-19T01:13:17;95580.09;;;7.54;70.34
72395;BME280;60384;48.152;11.614;2023-11-19T01:16:19;95580.25;;;7.61;70.37
72395;BME280;60384;48.152;11.614;2023-11-19T01:19:21;95586.16;;;7.71;70.16
72395;BME280;60384;48.152;11.614;2023-11-19T01:22:25;95502.47;;;7.15;70.45
72395;BME280;60384;48.152;11.614;2023-11-19T01:25:26;95566.69;;;7.56;70.46
72395;BME280;60384;48.152;11.614;2023-11-19T01:28:30;95561.53;;;7.62;70.22
72395;BME280;60384;48.152;11.614;2023-11-19T01:31:32;95531.31;;;7.41;70.10
72395;BME280;60384;48.152;11.614;2023-11-19T01:34:34;95584.66;;;7.77;70.15
72395;BME280;60384;48.152;11.614;2023-11-19T01:37:36;95514.59;;;7.40;70.20
72395;BME280;60384;48.152;11.614;2023-11-19T01:40:38;95544.16;;;7.60;70.46
72395;BME280;60384;48.152;11.614;2023-11-19T01:43:41;95566.09;;;7.77;70.66
72395;BME280;60384;48.152;11.614;2023-11-19T01:46:44;95560.63;;;7.78;70.68
72395;BME280;60384;48.152;11.614;2023-11-19T01:49:48;95534.88;;;7.64;70.74
72395;BME280;60384;48.152;11.614;2023-11-19T01:52:52;95537.63;;;7.71;70.68
72395;BME280;60384;48.152;11.614;2023-11-19T01:55:54;95308.34;;;6.21;70.75
72395;BME280;60384;48.152;11.614;2023-11-19T01:58:59;95566.06;;;7.85;70.71
72395;BME280;60384;48.152;11.614;2023-11-19T02:02:01;95503.25;;;7.62;70.50
72395;BME280;60384;48.152;11.614;2023-11-19T02:05:04;95526.84;;;7.80;70.74
72395;BME280;60384;48.152;11.614;2023-11-19T02:08:06;95538.84;;;7.91;70.60
72395;BME280;60384;48.152;11.614;2023-11-19T02:11:08;95536.69;;;7.94;70.88
72395;BME280;60384;48.152;11.614;2023-11-19T02:14:11;95528.88;;;8.01;70.81
72395;BME280;60384;48.152;11.614;2023-11-19T02:17:25;95483.56;;;7.88;70.65
72395;BME280;60384;48.152;11.614;2023-11-19T02:20:28;95514.19;;;8.13;70.64
72395;BME280;60384;48.152;11.614;2023-11-19T02:23:30;95480.31;;;8.00;70.78
72395;BME280;60384;48.152;11.614;2023-11-19T02:26:32;95495.19;;;8.24;70.43
72395;BME280;60384;48.152;11.614;2023-11-19T02:29:40;95492.09;;;8.21;70.44
72395;BME280;60384;48.152;11.614;2023-11-19T02:32:43;95487.25;;;8.24;70.69
72395;BME280;60384;48.152;11.614;2023-11-19T02:35:44;95438.25;;;7.97;70.77
72395;BME280;60384;48.152;11.614;2023-11-19T02:38:46;95428.59;;;8.05;70.68
72395;BME280;60384;48.152;11.614;2023-11-19T02:41:48;95475.44;;;8.35;70.74
72395;BME280;60384;48.152;11.614;2023-11-19T02:44:54;95399.81;;;7.93;70.60
72395;BME280;60384;48.152;11.614;2023-11-19T02:47:56;95418.25;;;8.10;70.51
72395;BME280;60384;48.152;11.614;2023-11-19T02:50:58;95463.19;;;8.49;70.51
72395;BME280;60384;48.152;11.614;2023-11-19T02:54:00;95465.31;;;8.53;70.86
72395;BME280;60384;48.152;11.614;2023-11-19T02:57:04;95431.06;;;8.44;70.73
72395;BME280;60384;48.152;11.614;2023-11-19T03:00:11;95437.03;;;8.60;70.79
72395;BME280;60384;48.152;11.614;2023-11-19T03:03:13;95440.81;;;8.66;71.03
72395;BME280;60384;48.152;11.614;2023-11-19T03:06:21;95432.31;;;8.70;70.83
72395;BME280;60384;48.152;11.614;2023-11-19T03:09:23;95441.44;;;8.83;70.47
72395;BME280;60384;48.152;11.614;2023-11-19T03:12:24;95426.44;;;8.75;70.79
72395;BME280;60384;48.152;11.614;2023-11-19T03:15:28;95422.50;;;8.86;70.56
72395;BME280;60384;48.152;11.614;2023-11-19T03:18:30;95401.75;;;8.75;70.66
72395;BME280;60384;48.152;11.614;2023-11-19T03:21:32;95401.16;;;8.79;70.59
72395;BME280;60384;48.152;11.614;2023-11-19T03:24:34;95425.31;;;8.99;70.80
72395;BME280;60384;48.152;11.614;2023-11-19T03:27:37;95413.47;;;8.95;70.83
72395;BME280;60384;48.152;11.614;2023-11-19T03:30:40;95423.22;;;9.09;70.67
72395;BME280;60384;48.152;11.614;2023-11-19T03:33:42;95413.91;;;9.13;70.66
72395;BME280;60384;48.152;11.614;2023-11-19T03:36:44;95418.63;;;9.18;70.70
72395;BME280;60384;48.152;11.614;2023-11-19T03:39:46;95368.03;;;8.90;70.57
72395;BME280;60384;48.152;11.614;2023-11-19T03:42:48;95421.19;;;9.26;70.66
72395;BME280;60384;48.152;11.614;2023-11-19T03:45:51;95404.16;;;9.20;70.87
72395;BME280;60384;48.152;11.614;2023-11-19T03:48:53;95387.25;;;9.07;70.75
72395;BME280;60384;48.152;11.614;2023-11-19T03:51:55;95429.13;;;9.40;70.63
72395;BME280;60384;48.152;11.614;2023-11-19T03:54:57;95424.81;;;9.39;70.66
72395;BME280;60384;48.152;11.614;2023-11-19T03:57:59;95408.78;;;9.33;70.76
72395;BME280;60384;48.152;11.614;2023-11-19T04:01:02;95423.25;;;9.45;70.76
72395;BME280;60384;48.152;11.614;2023-11-19T04:04:05;95411.16;;;9.43;70.70
72395;BME280;60384;48.152;11.614;2023-11-19T04:07:07;95412.06;;;9.50;70.84
72395;BME280;60384;48.152;11.614;2023-11-19T04:10:09;95420.94;;;9.57;70.78
72395;BME280;60384;48.152;11.614;2023-11-19T04:13:11;95422.47;;;9.66;70.59
72395;BME280;60384;48.152;11.614;2023-11-19T04:16:14;95429.00;;;9.63;70.90
72395;BME280;60384;48.152;11.614;2023-11-19T04:19:17;95412.97;;;9.57;70.89
72395;BME280;60384;48.152;11.614;2023-11-19T04:22:19;95324.69;;;9.04;70.78
72395;BME280;60384;48.152;11.614;2023-11-19T04:25:21;95403.59;;;9.61;70.90
72395;BME280;60384;48.152;11.614;2023-11-19T04:28:25;95429.31;;;9.75;70.92
72395;BME280;60384;48.152;11.614;2023-11-19T04:31:30;95402.59;;;9.62;71.26
72395;BME280;60384;48.152;11.614;2023-11-19T04:34:33;95432.88;;;9.82;71.11
72395;BME280;60384;48.152;11.614;2023-11-19T04:37:35;95426.34;;;9.85;70.97
72395;BME280;60384;48.152;11.614;2023-11-19T04:40:37;95395.06;;;9.65;71.06
72395;BME280;60384;48.152;11.614;2023-11-19T04:43:39;95427.03;;;9.93;71.11
72395;BME280;60384;48.152;11.614;2023-11-19T04:46:42;95424.63;;;9.98;71.32
72395;BME280;60384;48.152;11.614;2023-11-19T04:49:44;95428.16;;;10.05;71.31
72395;BME280;60384;48.152;11.614;2023-11-19T04:52:46;95415.06;;;10.04;71.18
72395;BME280;60384;48.152;11.614;2023-11-19T04:55:48;95426.50;;;10.19;71.12
72395;BME280;60384;48.152;11.614;2023-11-19T04:58:50;95359.63;;;9.80;71.49
72395;BME280;60384;48.152;11.614;2023-11-19T05:01:53;95427.44;;;10.33;71.62
72395;BME280;60384;48.152;11.614;2023-11-19T05:04:55;95414.50;;;10.30;71.44
72395;BME280;60384;48.152;11.614;2023-11-19T05:07:57;95434.50;;;10.47;71.78
72395;BME280;60384;48.152;11.614;2023-11-19T05:10:59;95439.06;;;10.53;71.60
72395;BME280;60384;48.152;11.614;2023-11-19T05:14:02;95445.44;;;10.59;71.74
72395;BME280;60384;48.152;11.614;2023-11-19T05:17:06;95438.69;;;10.56;72.05
72395;BME280;60384;48.152;11.614;2023-11-19T05:20:09;95377.81;;;10.25;71.88
72395;BME280;60384;48.152;11.614;2023-11-19T05:23:13;95451.69;;;10.72;72.03
72395;BME280;60384;48.152;11.614;2023-11-19T05:26:19;95456.63;;;10.75;72.27
72395;BME280;60384;48.152;11.614;2023-11-19T05:29:21;95460.09;;;10.76;72.72
72395;BME280;60384;48.152;11.614;2023-11-19T05:32:24;95453.09;;;10.68;72.99
72395;BME280;60384;48.152;11.614;2023-11-19T05:35:26;95462.56;;;10.77;72.97
72395;BME280;60384;48.152;11.614;2023-11-19T05:38:28;95404.59;;;10.45;73.28
72395;BME280;60384;48.152;11.614;2023-11-19T05:41:30;95465.69;;;10.81;73.42
72395;BME280;60384;48.152;11.614;2023-11-19T05:44:31;95464.84;;;10.81;73.70
72395;BME280;60384;48.152;11.614;2023-11-19T05:47:35;95466.69;;;10.80;74.03
72395;BME280;60384;48.152;11.614;2023-11-19T05:50:37;95466.31;;;10.83;73.97
72395;BME280;60384;48.152;11.614;2023-11-19T05:53:39;95461.81;;;10.84;74.15
72395;BME280;60384;48.152;11.614;2023-11-19T05:56:41;95465.28;;;10.84;74.33
72395;BME280;60384;48.152;11.614;2023-11-19T05:59:42;95465.09;;;10.86;74.32
72395;BME280;60384;48.152;11.614;2023-11-19T06:02:46;95433.63;;;10.68;74.33
72395;BME280;60384;48.152;11.614;2023-11-19T06:05:48;95422.78;;;10.69;74.32
72395;BME280;60384;48.152;11.614;2023-11-19T06:08:50;95448.09;;;10.87;74.68
72395;BME280;60384;48.152;11.614;2023-11-19T06:11:52;95449.75;;;10.88;74.71
72395;BME280;60384;48.152;11.614;2023-11-19T06:14:55;95454.88;;;10.89;74.58
72395;BME280;60384;48.152;11.614;2023-11-19T06:17:59;95392.47;;;10.42;74.26
72395;BME280;60384;48.152;11.614;2023-11-19T06:21:02;95439.22;;;10.73;74.61
72395;BME280;60384;48.152;11.614;2023-11-19T06:24:04;95462.28;;;10.94;74.84
72395;BME280;60384;48.152;11.614;2023-11-19T06:27:06;95441.94;;;10.86;74.69
72395;BME280;60384;48.152;11.614;2023-11-19T06:30:09;95455.34;;;10.99;74.89
72395;BME280;60384;48.152;11.614;2023-11-19T06:33:14;95459.66;;;11.00;74.91
72395;BME280;60384;48.152;11.614;2023-11-19T06:36:15;95460.28;;;11.02;74.89
72395;BME280;60384;48.152;11.614;2023-11-19T06:39:17;95459.91;;;11.05;74.94
72395;BME280;60384;48.152;11.614;2023-11-19T06:42:20;95431.31;;;10.93;74.88
72395;BME280;60384;48.152;11.614;2023-11-19T06:45:22;95434.81;;;10.93;74.74
72395;BME280;60384;48.152;11.614;2023-11-19T06:48:25;95455.41;;;11.12;74.92
72395;BME280;60384;48.152;11.614;2023-11-19T06:51:27;95463.22;;;11.14;74.81
72395;BME280;60384;48.152;11.614;2023-11-19T06:54:30;95470.81;;;11.17;74.81
72395;BME280;60384;48.152;11.614;2023-11-19T06:57:32;95474.75;;;11.21;74.87
72395;BME280;60384;48.152;11.614;2023-11-19T07:00:34;95447.63;;;11.11;74.63
72395;BME280;60384;48.152;11.614;2023-11-19T07:03:37;95480.53;;;11.31;74.51
72395;BME280;60384;48.152;11.614;2023-11-19T07:06:39;95482.56;;;11.29;74.84
72395;BME280;60384;48.152;11.614;2023-11-19T07:09:42;95435.28;;;11.03;74.87
72395;BME280;60384;48.152;11.614;2023-11-19T07:12:44;95478.94;;;11.37;74.71
72395;BME280;60384;48.152;11.614;2023-11-19T07:15:45;95489.19;;;11.40;74.75
72395;BME280;60384;48.152;11.614;2023-11-19T07:18:49;95486.16;;;11.43;74.95
72395;BME280;60384;48.152;11.614;2023-11-19T07:21:50;95445.88;;;11.25;74.71
72395;BME280;60384;48.152;11.614;2023-11-19T07:24:54;95455.31;;;11.34;74.88
72395;BME280;60384;48.152;11.614;2023-11-19T07:27:56;95446.06;;;11.23;74.97
72395;BME280;60384;48.152;11.614;2023-11-19T07:30:58;95455.75;;;11.37;74.95
72395;BME280;60384;48.152;11.614;2023-11-19T07:34:04;95493.38;;;11.56;74.86
72395;BME280;60384;48.152;11.614;2023-11-19T07:37:07;95470.31;;;11.35;74.78
72395;BME280;60384;48.152;11.614;2023-11-19T07:40:09;95502.44;;;11.68;75.04
72395;BME280;60384;48.152;11.614;2023-11-19T07:43:12;95517.88;;;11.72;74.95
72395;BME280;60384;48.152;11.614;2023-11-19T07:46:14;95524.47;;;11.76;75.00
72395;BME280;60384;48.152;11.614;2023-11-19T07:49:17;95520.59;;;11.79;74.95
72395;BME280;60384;48.152;11.614;2023-11-19T07:52:19;95413.81;;;11.11;74.68
72395;BME280;60384;48.152;11.614;2023-11-19T07:55:20;95517.31;;;11.83;75.08
72395;BME280;60384;48.152;11.614;2023-11-19T07:58:22;95403.41;;;11.23;75.06
72395;BME280;60384;48.152;11.614;2023-11-19T08:01:24;95523.91;;;11.88;75.06
72395;BME280;60384;48.152;11.614;2023-11-19T08:04:27;95469.81;;;11.59;74.96
72395;BME280;60384;48.152;11.614;2023-11-19T08:07:29;95465.50;;;11.58;74.98
72395;BME280;60384;48.152;11.614;2023-11-19T08:10:31;95498.25;;;11.87;75.18
72395;BME280;60384;48.152;11.614;2023-11-19T08:13:33;95493.53;;;11.82;75.01
72395;BME280;60384;48.152;11.614;2023-11-19T08:16:35;95546.53;;;12.05;75.09
72395;BME280;60384;48.152;11.614;2023-11-19T08:19:39;95523.78;;;12.09;75.06
72395;BME280;60384;48.152;11.614;2023-11-19T08:22:41;95517.22;;;12.11;75.19
72395;BME280;60384;48.152;11.614;2023-11-19T08:25:46;95454.31;;;11.76;75.10
72395;BME280;60384;48.152;11.614;2023-11-19T08:28:48;95463.97;;;11.83;74.98
72395;BME280;60384;48.152;11.614;2023-11-19T08:31:50;95492.34;;;12.04;75.09
72395;BME280;60384;48.152;11.614;2023-11-19T08:34:53;95430.03;;;11.71;74.83
72395;BME280;60384;48.152;11.614;2023-11-19T08:37:55;95520.75;;;12.25;74.82
72395;BME280;60384;48.152;11.614;2023-11-19T08:40:57;95521.75;;;12.18;75.00
72395;BME280;60384;48.152;11.614;2023-11-19T08:44:00;95507.78;;;12.22;74.70
72395;BME280;60384;48.152;11.614;2023-11-19T08:47:02;95481.06;;;12.09;74.93
72395;BME280;60384;48.152;11.614;2023-11-19T08:50:06;95408.97;;;11.76;74.94
72395;BME280;60384;48.152;11.614;2023-11-19T08:53:08;95445.13;;;11.92;74.92
72395;BME280;60384;48.152;11.614;2023-11-19T08:56:12;95526.34;;;12.50;75.08
72395;BME280;60384;48.152;11.614;2023-11-19T08:59:21;95261.66;;;10.87;74.69
72395;BME280;60384;48.152;11.614;2023-11-19T09:02:31;95495.06;;;12.37;74.86
72395;BME280;60384;48.152;11.614;2023-11-19T09:05:34;95526.56;;;12.62;74.74
72395;BME280;60384;48.152;11.614;2023-11-19T09:08:37;95496.13;;;12.43;74.63
72395;BME280;60384;48.152;11.614;2023-11-19T09:11:39;95490.38;;;12.46;74.87
72395;BME280;60384;48.152;11.614;2023-11-19T09:14:41;95524.09;;;12.67;74.85
72395;BME280;60384;48.152;11.614;2023-11-19T09:17:43;95497.78;;;12.64;75.01
72395;BME280;60384;48.152;11.614;2023-11-19T09:20:47;95528.41;;;12.74;74.89
72395;BME280;60384;48.152;11.614;2023-11-19T09:23:49;95512.56;;;12.73;74.84
72395;BME280;60384;48.152;11.614;2023-11-19T09:26:51;95536.25;;;12.89;74.71
72395;BME280;60384;48.152;11.614;2023-11-19T09:29:52;95532.75;;;12.89;74.86
72395;BME280;60384;48.152;11.614;2023-11-19T09:32:57;95535.59;;;12.94;74.74
72395;BME280;60384;48.152;11.614;2023-11-19T09:36:03;95542.00;;;12.99;74.79
72395;BME280;60384;48.152;11.614;2023-11-19T09:39:05;95487.13;;;12.70;74.72
72395;BME280;60384;48.152;11.614;2023-11-19T09:42:08;95545.69;;;13.05;74.83
72395;BME280;60384;48.152;11.614;2023-11-19T09:45:13;95541.56;;;13.09;74.74
72395;BME280;60384;48.152;11.614;2023-11-19T09:48:16;95546.69;;;13.10;74.75
72395;BME280;60384;48.152;11.614;2023-11-19T09:51:20;95503.13;;;12.83;74.82
72395;BME280;60384;48.152;11.614;2023-11-19T09:54:23;95533.16;;;13.05;74.79
72395;BME280;60384;48.152;11.614;2023-11-19T09:57:25;95482.78;;;12.76;75.09
72395;BME280;60384;48.152;11.614;2023-11-19T10:00:27;95518.56;;;13.01;75.02
72395;BME280;60384;48.152;11.614;2023-11-19T10:03:33;95511.94;;;13.10;74.96
72395;BME280;60384;48.152;11.614;2023-11-19T10:06:37;95455.47;;;12.87;74.91
72395;BME280;60384;48.152;11.614;2023-11-19T10:09:38;95500.84;;;13.33;74.83
72395;BME280;60384;48.152;11.614;2023-11-19T10:12:40;95428.50;;;13.02;74.45
72395;BME280;60384;48.152;11.614;2023-11-19T10:15:43;95492.97;;;13.51;74.70
72395;BME280;60384;48.152;11.614;2023-11-19T10:18:46;95483.53;;;13.49;74.59
72395;BME280;60384;48.152;11.614;2023-11-19T10:21:49;95433.41;;;13.25;74.39
72395;BME280;60384;48.152;11.614;2023-11-19T10:24:51;95498.47;;;13.70;74.50
72395;BME280;60384;48.152;11.614;2023-11-19T10:27:53;95444.22;;;13.49;74.19
72395;BME280;60384;48.152;11.614;2023-11-19T10:30:56;95452.78;;;13.71;73.94
72395;BME280;60384;48.152;11.614;2023-11-19T10:33:58;95480.81;;;14.38;73.35
72395;BME280;60384;48.152;11.614;2023-11-19T10:37:01;95486.56;;;14.48;73.29
72395;BME280;60384;48.152;11.614;2023-11-19T10:40:04;95475.25;;;14.46;73.60
72395;BME280;60384;48.152;11.614;2023-11-19T10:43:06;95458.44;;;14.33;73.42
72395;BME280;60384;48.152;11.614;2023-11-19T10:46:10;95421.56;;;14.28;73.16
72395;BME280;60384;48.152;11.614;2023-11-19T10:49:12;95456.84;;;15.79;71.12
72395;BME280;60384;48.152;11.614;2023-11-19T10:52:17;95462.50;;;16.79;69.88
72395;BME280;60384;48.152;11.614;2023-11-19T10:55:24;95447.88;;;16.75;69.59
72395;BME280;60384;48.152;11.614;2023-11-19T10:58:28;95437.59;;;16.72;69.86
72395;BME280;60384;48.152;11.614;2023-11-19T11:01:34;95442.16;;;16.30;70.78
72395;BME280;60384;48.152;11.614;2023-11-19T11:04:41;95367.19;;;15.50;71.04
72395;BME280;60384;48.152;11.614;2023-11-19T11:07:45;95451.59;;;16.03;71.26
72395;BME280;60384;48.152;11.614;2023-11-19T11:10:52;95449.06;;;16.08;71.26
72395;BME280;60384;48.152;11.614;2023-11-19T11:13:55;95421.13;;;16.39;70.28
72395;BME280;60384;48.152;11.614;2023-11-19T11:17:00;95431.88;;;16.92;69.82
72395;BME280;60384;48.152;11.614;2023-11-19T11:20:05;95439.09;;;16.68;70.18
72395;BME280;60384;48.152;11.614;2023-11-19T11:26:53;95412.41;;;16.13;70.46
72395;BME280;60384;48.152;11.614;2023-11-19T11:30:09;95406.50;;;16.23;70.74
72395;BME280;60384;48.152;11.614;2023-11-19T11:33:32;95438.63;;;16.29;70.96
72395;BME280;60384;48.152;11.614;2023-11-19T11:36:42;95437.53;;;16.19;71.10
72395;BME280;60384;48.152;11.614;2023-11-19T11:39:50;95364.69;;;15.85;71.00
72395;BME280;60384;48.152;11.614;2023-11-19T11:42:51;95425.31;;;17.11;70.00
72395;BME280;60384;48.152;11.614;2023-11-19T11:45:54;95428.53;;;17.83;68.87
72395;BME280;60384;48.152;11.614;2023-11-19T11:48:56;95387.84;;;18.13;67.25
72395;BME280;60384;48.152;11.614;2023-11-19T11:52:02;95404.28;;;18.57;67.40
72395;BME280;60384;48.152;11.614;2023-11-19T11:55:09;95385.44;;;19.29;65.75
72395;BME280;60384;48.152;11.614;2023-11-19T11:58:12;95423.44;;;19.44;65.87
72395;BME280;60384;48.152;11.614;2023-11-19T12:01:15;95417.97;;;19.39;65.97
72395;BME280;60384;48.152;11.614;2023-11-19T12:04:20;95418.66;;;19.29;66.89
72395;BME280;60384;48.152;11.614;2023-11-19T12:07:24;95406.41;;;20.04;64.43
72395;BME280;60384;48.152;11.614;2023-11-19T12:10:29;95410.72;;;20.54;63.05
72395;BME280;60384;48.152;11.614;2023-11-19T12:13:53;95403.94;;;21.20;62.72
72395;BME280;60384;48.152;11.614;2023-11-19T12:17:03;95389.31;;;21.63;61.62
72395;BME280;60384;48.152;11.614;2023-11-19T12:20:06;95414.38;;;21.96;61.24
72395;BME280;60384;48.152;11.614;2023-11-19T12:23:09;95413.53;;;21.90;60.99
72395;BME280;60384;48.152;11.614;2023-11-19T12:26:34;95336.63;;;21.39;60.43
72395;BME280;60384;48.152;11.614;2023-11-19T12:29:41;95363.31;;;21.20;61.57
72395;BME280;60384;48.152;11.614;2023-11-19T12:32:45;95398.63;;;20.98;62.78
72395;BME280;60384;48.152;11.614;2023-11-19T12:35:48;95395.06;;;20.93;63.25
72395;BME280;60384;48.152;11.614;2023-11-19T12:38:50;95373.63;;;20.27;63.48
72395;BME280;60384;48.152;11.614;2023-11-19T12:41:53;95381.38;;;20.40;64.42
72395;BME280;60384;48.152;11.614;2023-11-19T12:44:55;95359.84;;;20.24;63.28
72395;BME280;60384;48.152;11.614;2023-11-19T12:48:07;95362.31;;;20.03;64.17
72395;BME280;60384;48.152;11.614;2023-11-19T12:51:10;95374.31;;;20.13;63.94
72395;BME280;60384;48.152;11.614;2023-11-19T12:54:11;95389.94;;;19.84;64.42
72395;BME280;60384;48.152;11.614;2023-11-19T12:57:15;95368.28;;;19.40;65.27
72395;BME280;60384;48.152;11.614;2023-11-19T13:00:20;95382.34;;;19.20;65.40
72395;BME280;60384;48.152;11.614;2023-11-19T13:03:29;95362.78;;;18.75;65.09
72395;BME280;60384;48.152;11.614;2023-11-19T13:06:32;95325.59;;;18.60;65.71
72395;BME280;60384;48.152;11.614;2023-11-19T13:09:33;95379.31;;;18.78;66.05
72395;BME280;60384;48.152;11.614;2023-11-19T13:12:37;95303.94;;;18.21;65.71
72395;BME280;60384;48.152;11.614;2023-11-19T13:15:39;95384.16;;;18.48;65.88
72395;BME280;60384;48.152;11.614;2023-11-19T13:18:40;95379.66;;;18.36;66.15
72395;BME280;60384;48.152;11.614;2023-11-19T13:21:45;95358.19;;;17.96;66.35
72395;BME280;60384;48.152;11.614;2023-11-19T13:24:49;95383.31;;;17.85;66.06
72395;BME280;60384;48.152;11.614;2023-11-19T13:27:53;95358.19;;;17.56;66.61
72395;BME280;60384;48.152;11.614;2023-11-19T13:30:55;95347.84;;;17.37;66.31
72395;BME280;60384;48.152;11.614;2023-11-19T13:33:56;95374.38;;;17.45;66.60
72395;BME280;60384;48.152;11.614;2023-11-19T13:36:59;95344.25;;;17.19;67.20
72395;BME280;60384;48.152;11.614;2023-11-19T13:40:01;95364.25;;;17.35;67.11
72395;BME280;60384;48.152;11.614;2023-11-19T13:43:05;95355.72;;;17.15;66.94
72395;BME280;60384;48.152;11.614;2023-11-19T13:46:07;95335.63;;;16.94;66.66
72395;BME280;60384;48.152;11.614;2023-11-19T13:49:10;95310.38;;;16.72;66.80
72395;BME280;60384;48.152;11.614;2023-11-19T13:52:12;95157.00;;;15.68;66.39
72395;BME280;60384;48.152;11.614;2023-11-19T13:55:14;95353.75;;;16.87;67.07
72395;BME280;60384;48.152;11.614;2023-11-19T13:58:17;95360.09;;;16.81;67.08
72395;BME280;60384;48.152;11.614;2023-11-19T14:01:19;95222.72;;;15.89;66.94
72395;BME280;60384;48.152;11.614;2023-11-19T14:04:21;95347.22;;;16.71;66.98
72395;BME280;60384;48.152;11.614;2023-11-19T14:07:23;95339.84;;;16.66;67.25
72395;BME280;60384;48.152;11.614;2023-11-19T14:10:25;95297.16;;;16.35;66.76
72395;BME280;60384;48.152;11.614;2023-11-19T14:13:28;95342.63;;;16.60;66.50
72395;BME280;60384;48.152;11.614;2023-11-19T14:16:30;95327.66;;;16.41;66.75
72395;BME280;60384;48.152;11.614;2023-11-19T14:19:32;95314.56;;;16.32;66.74
72395;BME280;60384;48.152;11.614;2023-11-19T14:22:34;95258.34;;;15.96;66.92
72395;BME280;60384;48.152;11.614;2023-11-19T14:25:36;95303.09;;;16.14;66.37
72395;BME280;60384;48.152;11.614;2023-11-19T14:28:39;95314.31;;;16.22;66.67
72395;BME280;60384;48.152;11.614;2023-11-19T14:31:41;95263.22;;;15.87;66.71
72395;BME280;60384;48.152;11.614;2023-11-19T14:34:43;95296.78;;;16.08;66.81
72395;BME280;60384;48.152;11.614;2023-11-19T14:37:45;95336.78;;;16.28;66.67
72395;BME280;60384;48.152;11.614;2023-11-19T14:40:47;95318.03;;;16.10;66.46
72395;BME280;60384;48.152;11.614;2023-11-19T14:43:50;95348.06;;;16.18;66.67
72395;BME280;60384;48.152;11.614;2023-11-19T14:46:53;95332.53;;;16.09;66.53
72395;BME280;60384;48.152;11.614;2023-11-19T14:49:55;95345.84;;;16.15;66.26
72395;BME280;60384;48.152;11.614;2023-11-19T14:52:56;95334.75;;;16.12;66.33
72395;BME280;60384;48.152;11.614;2023-11-19T14:55:58;95296.50;;;15.86;66.42
72395;BME280;60384;48.152;11.614;2023-11-19T14:59:02;95319.53;;;15.94;66.09
72395;BME280;60384;48.152;11.614;2023-11-19T15:02:04;95226.50;;;15.28;66.23
72395;BME280;60384;48.152;11.614;2023-11-19T15:05:07;95322.38;;;15.81;66.25
72395;BME280;60384;48.152;11.614;2023-11-19T15:08:10;95333.13;;;15.81;66.15
72395;BME280;60384;48.152;11.614;2023-11-19T15:11:12;95340.25;;;15.75;66.36
72395;BME280;60384;48.152;11.614;2023-11-19T15:14:15;95328.56;;;15.70;66.54
72395;BME280;60384;48.152;11.614;2023-11-19T15:17:19;95325.00;;;15.57;66.61
72395;BME280;60384;48.152;11.614;2023-11-19T15:20:24;95230.69;;;14.94;66.40
72395;BME280;60384;48.152;11.614;2023-11-19T15:23:30;95216.84;;;14.79;66.48
72395;BME280;60384;48.152;11.614;2023-11-19T15:26:32;95248.84;;;14.92;66.78
72395;BME280;60384;48.152;11.614;2023-11-19T15:29:35;95301.13;;;15.19;66.43
72395;BME280;60384;48.152;11.614;2023-11-19T15:32:39;95258.03;;;14.84;66.66
72395;BME280;60384;48.152;11.614;2023-11-19T15:35:43;95294.81;;;14.96;66.70
72395;BME280;60384;48.152;11.614;2023-11-19T15:38:45;95345.69;;;15.20;66.98
72395;BME280;60384;48.152;11.614;2023-11-19T15:41:47;95346.34;;;15.16;66.85
72395;BME280;60384;48.152;11.614;2023-11-19T15:44:50;95348.72;;;15.06;66.71
72395;BME280;60384;48.152;11.614;2023-11-19T15:47:52;95345.09;;;15.00;66.86
72395;BME280;60384;48.152;11.614;2023-11-19T15:50:54;95342.84;;;14.97;66.76
72395;BME280;60384;48.152;11.614;2023-11-19T15:53:55;95352.00;;;14.89;66.94
72395;BME280;60384;48.152;11.614;2023-11-19T15:56:57;95355.34;;;14.85;66.87
72395;BME280;60384;48.152;11.614;2023-11-19T16:00:00;95343.50;;;14.74;67.09
72395;BME280;60384;48.152;11.614;2023-11-19T16:03:05;95357.72;;;14.75;66.97